sensor_id;sensor_type;location;lat;lon;timestamp;P1;durP1;ratioP1;P2;durP2;ratioP2
9948;SDS011;5013;51.840;8.276;2023-01-24T00:00:10;13.77;;;12.00;;
9948;SDS011;5013;51.840;8.276;2023-01-24T00:02:36;12.23;;;11.03;;
9948;SDS011;5013;51.840;8.276;2023-01-24T00:05:03;13.70;;;12.20;;
9948;SDS011;5013;51.840;8.276;2023-01-24T00:07:29;14.23;;;12.03;;
9948;SDS011;5013;51.840;8.276;2023-01-24T00:09:55;12.93;;;11.63;;
9948;SDS011;5013;51.840;8.276;2023-01-24T00:12:21;13.10;;;11.80;;
9948;SDS011;5013;51.840;8.276;2023-01-24T00:14:46;13.53;;;11.83;;
9948;SDS011;5013;51.840;8.276;2023-01-24T00:17:12;12.30;;;10.80;;
9948;SDS011;5013;51.840;8.276;2023-01-24T00:19:38;13.90;;;11.63;;
9948;SDS011;5013;51.840;8.276;2023-01-24T00:22:04;12.93;;;10.87;;
9948;SDS011;5013;51.840;8.276;2023-01-24T00:24:30;13.67;;;11.10;;
9948;SDS011;5013;51.840;8.276;2023-01-24T00:26:58;13.23;;;11.67;;
9948;SDS011;5013;51.840;8.276;2023-01-24T00:29:24;15.07;;;11.87;;
9948;SDS011;5013;51.840;8.276;2023-01-24T00:31:49;12.63;;;11.33;;
9948;SDS011;5013;51.840;8.276;2023-01-24T00:34:15;15.63;;;11.90;;
9948;SDS011;5013;51.840;8.276;2023-01-24T00:36:40;17.20;;;12.70;;
9948;SDS011;5013;51.840;8.276;2023-01-24T00:39:06;14.67;;;11.93;;
9948;SDS011;5013;51.840;8.276;2023-01-24T00:41:31;14.70;;;12.40;;
9948;SDS011;5013;51.840;8.276;2023-01-24T00:43:57;15.83;;;12.97;;
9948;SDS011;5013;51.840;8.276;2023-01-24T00:46:23;15.73;;;12.70;;
9948;SDS011;5013;51.840;8.276;2023-01-24T00:48:48;14.87;;;12.90;;
9948;SDS011;5013;51.840;8.276;2023-01-24T00:51:14;16.97;;;13.60;;
9948;SDS011;5013;51.840;8.276;2023-01-24T00:53:39;15.27;;;12.63;;
9948;SDS011;5013;51.840;8.276;2023-01-24T00:56:05;16.03;;;12.83;;
9948;SDS011;5013;51.840;8.276;2023-01-24T00:58:32;14.97;;;12.67;;
9948;SDS011;5013;51.840;8.276;2023-01-24T01:00:58;15.30;;;12.70;;
9948;SDS011;5013;51.840;8.276;2023-01-24T01:03:25;16.07;;;13.03;;
9948;SDS011;5013;51.840;8.276;2023-01-24T01:05:58;15.23;;;13.07;;
9948;SDS011;5013;51.840;8.276;2023-01-24T01:08:31;15.60;;;12.13;;
9948;SDS011;5013;51.840;8.276;2023-01-24T01:10:58;13.80;;;11.87;;
9948;SDS011;5013;51.840;8.276;2023-01-24T01:13:24;18.53;;;12.80;;
9948;SDS011;5013;51.840;8.276;2023-01-24T01:15:50;13.47;;;12.07;;
9948;SDS011;5013;51.840;8.276;2023-01-24T01:18:16;11.87;;;10.67;;
9948;SDS011;5013;51.840;8.276;2023-01-24T01:20:42;12.50;;;10.77;;
9948;SDS011;5013;51.840;8.276;2023-01-24T01:23:13;14.20;;;12.17;;
9948;SDS011;5013;51.840;8.276;2023-01-24T01:25:39;15.17;;;12.07;;
9948;SDS011;5013;51.840;8.276;2023-01-24T01:28:05;14.23;;;11.70;;
9948;SDS011;5013;51.840;8.276;2023-01-24T01:30:30;15.00;;;12.73;;
9948;SDS011;5013;51.840;8.276;2023-01-24T01:32:56;13.67;;;11.73;;
9948;SDS011;5013;51.840;8.276;2023-01-24T01:35:21;16.50;;;11.70;;
9948;SDS011;5013;51.840;8.276;2023-01-24T01:37:47;13.87;;;11.67;;
9948;SDS011;5013;51.840;8.276;2023-01-24T01:40:12;15.57;;;12.00;;
9948;SDS011;5013;51.840;8.276;2023-01-24T01:42:48;15.80;;;12.40;;
9948;SDS011;5013;51.840;8.276;2023-01-24T01:45:40;17.03;;;12.57;;
9948;SDS011;5013;51.840;8.276;2023-01-24T01:50:56;14.17;;;11.93;;
9948;SDS011;5013;51.840;8.276;2023-01-24T01:53:59;14.97;;;12.30;;
9948;SDS011;5013;51.840;8.276;2023-01-24T01:56:36;13.37;;;11.77;;
9948;SDS011;5013;51.840;8.276;2023-01-24T01:59:23;15.00;;;12.20;;
9948;SDS011;5013;51.840;8.276;2023-01-24T02:01:52;13.90;;;11.90;;
9948;SDS011;5013;51.840;8.276;2023-01-24T02:04:21;14.50;;;12.00;;
9948;SDS011;5013;51.840;8.276;2023-01-24T02:09:49;15.13;;;12.57;;
9948;SDS011;5013;51.840;8.276;2023-01-24T02:12:18;14.57;;;12.47;;
9948;SDS011;5013;51.840;8.276;2023-01-24T02:15:02;13.57;;;12.17;;
9948;SDS011;5013;51.840;8.276;2023-01-24T02:17:49;14.33;;;12.60;;
9948;SDS011;5013;51.840;8.276;2023-01-24T02:20:26;13.37;;;11.83;;
9948;SDS011;5013;51.840;8.276;2023-01-24T02:26:12;15.60;;;12.30;;
9948;SDS011;5013;51.840;8.276;2023-01-24T02:28:41;14.93;;;12.73;;
9948;SDS011;5013;51.840;8.276;2023-01-24T02:31:13;17.57;;;12.67;;
9948;SDS011;5013;51.840;8.276;2023-01-24T02:33:38;14.47;;;12.57;;
9948;SDS011;5013;51.840;8.276;2023-01-24T02:39:12;15.67;;;11.93;;
9948;SDS011;5013;51.840;8.276;2023-01-24T02:41:43;13.80;;;11.83;;
9948;SDS011;5013;51.840;8.276;2023-01-24T02:44:29;13.87;;;11.53;;
9948;SDS011;5013;51.840;8.276;2023-01-24T02:47:01;14.73;;;12.80;;
9948;SDS011;5013;51.840;8.276;2023-01-24T02:49:27;14.00;;;11.93;;
9948;SDS011;5013;51.840;8.276;2023-01-24T02:51:53;18.40;;;12.87;;
9948;SDS011;5013;51.840;8.276;2023-01-24T02:54:39;14.93;;;12.10;;
9948;SDS011;5013;51.840;8.276;2023-01-24T02:57:04;13.50;;;12.00;;
9948;SDS011;5013;51.840;8.276;2023-01-24T02:59:49;14.07;;;11.93;;
9948;SDS011;5013;51.840;8.276;2023-01-24T03:02:14;13.50;;;12.10;;
9948;SDS011;5013;51.840;8.276;2023-01-24T03:04:40;13.43;;;12.03;;
9948;SDS011;5013;51.840;8.276;2023-01-24T03:07:06;13.40;;;11.97;;
9948;SDS011;5013;51.840;8.276;2023-01-24T03:09:31;15.50;;;12.20;;
9948;SDS011;5013;51.840;8.276;2023-01-24T03:12:03;14.20;;;11.00;;
9948;SDS011;5013;51.840;8.276;2023-01-24T03:14:49;14.33;;;11.60;;
9948;SDS011;5013;51.840;8.276;2023-01-24T03:17:33;13.53;;;11.40;;
9948;SDS011;5013;51.840;8.276;2023-01-24T03:20:17;13.77;;;11.77;;
9948;SDS011;5013;51.840;8.276;2023-01-24T03:23:02;12.30;;;11.00;;
9948;SDS011;5013;51.840;8.276;2023-01-24T03:25:46;12.90;;;11.50;;
9948;SDS011;5013;51.840;8.276;2023-01-24T03:28:30;15.33;;;12.73;;
9948;SDS011;5013;51.840;8.276;2023-01-24T03:31:14;13.43;;;11.87;;
9948;SDS011;5013;51.840;8.276;2023-01-24T03:33:58;13.33;;;11.73;;
9948;SDS011;5013;51.840;8.276;2023-01-24T03:36:42;13.73;;;11.43;;
9948;SDS011;5013;51.840;8.276;2023-01-24T03:39:08;13.53;;;11.20;;
9948;SDS011;5013;51.840;8.276;2023-01-24T03:41:54;13.50;;;11.07;;
9948;SDS011;5013;51.840;8.276;2023-01-24T03:44:19;13.83;;;11.23;;
9948;SDS011;5013;51.840;8.276;2023-01-24T03:46:45;14.17;;;11.80;;
9948;SDS011;5013;51.840;8.276;2023-01-24T03:49:11;12.37;;;10.93;;
9948;SDS011;5013;51.840;8.276;2023-01-24T03:51:36;12.23;;;10.53;;
9948;SDS011;5013;51.840;8.276;2023-01-24T03:54:20;11.43;;;9.83;;
9948;SDS011;5013;51.840;8.276;2023-01-24T03:56:46;12.23;;;10.43;;
9948;SDS011;5013;51.840;8.276;2023-01-24T03:59:12;12.23;;;10.43;;
9948;SDS011;5013;51.840;8.276;2023-01-24T04:01:38;12.13;;;10.10;;
9948;SDS011;5013;51.840;8.276;2023-01-24T04:04:03;13.67;;;10.93;;
9948;SDS011;5013;51.840;8.276;2023-01-24T04:06:29;10.50;;;9.43;;
9948;SDS011;5013;51.840;8.276;2023-01-24T04:08:54;10.73;;;9.53;;
9948;SDS011;5013;51.840;8.276;2023-01-24T04:11:20;11.47;;;10.27;;
9948;SDS011;5013;51.840;8.276;2023-01-24T04:13:46;14.10;;;10.33;;
9948;SDS011;5013;51.840;8.276;2023-01-24T04:16:11;12.33;;;10.37;;
9948;SDS011;5013;51.840;8.276;2023-01-24T04:18:38;13.53;;;10.43;;
9948;SDS011;5013;51.840;8.276;2023-01-24T04:21:03;11.17;;;9.97;;
9948;SDS011;5013;51.840;8.276;2023-01-24T04:23:29;10.60;;;9.50;;
9948;SDS011;5013;51.840;8.276;2023-01-24T04:25:55;11.30;;;9.83;;
9948;SDS011;5013;51.840;8.276;2023-01-24T04:28:23;11.23;;;10.10;;
9948;SDS011;5013;51.840;8.276;2023-01-24T04:30:49;18.20;;;11.77;;
9948;SDS011;5013;51.840;8.276;2023-01-24T04:33:20;13.93;;;10.87;;
9948;SDS011;5013;51.840;8.276;2023-01-24T04:35:46;11.03;;;9.80;;
9948;SDS011;5013;51.840;8.276;2023-01-24T04:38:11;12.20;;;10.87;;
9948;SDS011;5013;51.840;8.276;2023-01-24T04:40:37;12.53;;;11.13;;
9948;SDS011;5013;51.840;8.276;2023-01-24T04:43:02;14.90;;;10.20;;
9948;SDS011;5013;51.840;8.276;2023-01-24T04:45:28;14.60;;;9.90;;
9948;SDS011;5013;51.840;8.276;2023-01-24T04:47:54;10.57;;;9.43;;
9948;SDS011;5013;51.840;8.276;2023-01-24T04:50:19;10.60;;;9.50;;
9948;SDS011;5013;51.840;8.276;2023-01-24T04:52:45;12.23;;;10.07;;
9948;SDS011;5013;51.840;8.276;2023-01-24T04:55:11;11.10;;;8.87;;
9948;SDS011;5013;51.840;8.276;2023-01-24T04:57:36;10.17;;;9.03;;
9948;SDS011;5013;51.840;8.276;2023-01-24T05:00:02;10.83;;;8.97;;
9948;SDS011;5013;51.840;8.276;2023-01-24T05:02:29;11.33;;;9.50;;
9948;SDS011;5013;51.840;8.276;2023-01-24T05:04:54;10.73;;;9.30;;
9948;SDS011;5013;51.840;8.276;2023-01-24T05:07:20;11.23;;;9.33;;
9948;SDS011;5013;51.840;8.276;2023-01-24T05:09:46;12.77;;;10.53;;
9948;SDS011;5013;51.840;8.276;2023-01-24T05:12:11;12.17;;;9.83;;
9948;SDS011;5013;51.840;8.276;2023-01-24T05:14:37;10.43;;;9.27;;
9948;SDS011;5013;51.840;8.276;2023-01-24T05:17:03;12.80;;;8.97;;
9948;SDS011;5013;51.840;8.276;2023-01-24T05:19:28;10.07;;;7.73;;
9948;SDS011;5013;51.840;8.276;2023-01-24T05:21:54;10.63;;;9.20;;
9948;SDS011;5013;51.840;8.276;2023-01-24T05:24:19;11.73;;;9.07;;
9948;SDS011;5013;51.840;8.276;2023-01-24T05:26:45;11.43;;;9.07;;
9948;SDS011;5013;51.840;8.276;2023-01-24T05:29:11;9.17;;;8.20;;
9948;SDS011;5013;51.840;8.276;2023-01-24T05:31:36;11.10;;;9.93;;
9948;SDS011;5013;51.840;8.276;2023-01-24T05:34:02;10.60;;;8.93;;
9948;SDS011;5013;51.840;8.276;2023-01-24T05:36:30;9.23;;;8.33;;
9948;SDS011;5013;51.840;8.276;2023-01-24T05:38:55;9.07;;;8.23;;
9948;SDS011;5013;51.840;8.276;2023-01-24T05:41:21;9.53;;;8.50;;
9948;SDS011;5013;51.840;8.276;2023-01-24T05:43:47;16.13;;;8.87;;
9948;SDS011;5013;51.840;8.276;2023-01-24T05:46:15;9.43;;;8.53;;
9948;SDS011;5013;51.840;8.276;2023-01-24T05:48:42;9.63;;;8.70;;
9948;SDS011;5013;51.840;8.276;2023-01-24T05:51:09;10.83;;;8.43;;
9948;SDS011;5013;51.840;8.276;2023-01-24T05:53:37;9.07;;;8.00;;
9948;SDS011;5013;51.840;8.276;2023-01-24T05:56:05;8.80;;;7.90;;
9948;SDS011;5013;51.840;8.276;2023-01-24T05:58:36;11.07;;;8.33;;
9948;SDS011;5013;51.840;8.276;2023-01-24T06:01:05;8.80;;;7.97;;
9948;SDS011;5013;51.840;8.276;2023-01-24T06:03:39;11.57;;;8.87;;
9948;SDS011;5013;51.840;8.276;2023-01-24T06:06:06;8.60;;;7.80;;
9948;SDS011;5013;51.840;8.276;2023-01-24T06:08:33;10.47;;;9.27;;
9948;SDS011;5013;51.840;8.276;2023-01-24T06:11:03;9.40;;;8.37;;
9948;SDS011;5013;51.840;8.276;2023-01-24T06:13:34;9.23;;;8.33;;
9948;SDS011;5013;51.840;8.276;2023-01-24T06:16:01;10.33;;;9.03;;
9948;SDS011;5013;51.840;8.276;2023-01-24T06:18:31;11.13;;;9.93;;
9948;SDS011;5013;51.840;8.276;2023-01-24T06:20:57;10.83;;;9.73;;
9948;SDS011;5013;51.840;8.276;2023-01-24T06:23:28;10.53;;;9.00;;
9948;SDS011;5013;51.840;8.276;2023-01-24T06:25:54;12.17;;;9.43;;
9948;SDS011;5013;51.840;8.276;2023-01-24T06:28:20;11.47;;;9.07;;
9948;SDS011;5013;51.840;8.276;2023-01-24T06:30:48;10.13;;;8.90;;
9948;SDS011;5013;51.840;8.276;2023-01-24T06:38:54;12.03;;;9.50;;
9948;SDS011;5013;51.840;8.276;2023-01-24T06:41:20;16.43;;;9.60;;
9948;SDS011;5013;51.840;8.276;2023-01-24T06:43:46;17.03;;;10.90;;
9948;SDS011;5013;51.840;8.276;2023-01-24T06:46:12;12.63;;;9.17;;
9948;SDS011;5013;51.840;8.276;2023-01-24T06:48:38;10.87;;;9.73;;
9948;SDS011;5013;51.840;8.276;2023-01-24T06:51:08;13.07;;;10.10;;
9948;SDS011;5013;51.840;8.276;2023-01-24T06:53:40;12.13;;;9.80;;
9948;SDS011;5013;51.840;8.276;2023-01-24T06:56:06;12.10;;;10.23;;
9948;SDS011;5013;51.840;8.276;2023-01-24T06:58:33;12.87;;;10.20;;
9948;SDS011;5013;51.840;8.276;2023-01-24T07:00:59;11.10;;;9.73;;
9948;SDS011;5013;51.840;8.276;2023-01-24T07:03:24;10.07;;;9.10;;
9948;SDS011;5013;51.840;8.276;2023-01-24T07:05:50;11.93;;;9.77;;
9948;SDS011;5013;51.840;8.276;2023-01-24T07:08:15;11.80;;;10.20;;
9948;SDS011;5013;51.840;8.276;2023-01-24T07:10:42;17.13;;;10.80;;
9948;SDS011;5013;51.840;8.276;2023-01-24T07:13:08;13.87;;;10.83;;
9948;SDS011;5013;51.840;8.276;2023-01-24T07:15:33;13.00;;;11.53;;
9948;SDS011;5013;51.840;8.276;2023-01-24T07:18:08;11.10;;;9.73;;
9948;SDS011;5013;51.840;8.276;2023-01-24T07:20:37;12.63;;;11.10;;
9948;SDS011;5013;51.840;8.276;2023-01-24T07:23:02;11.83;;;10.50;;
9948;SDS011;5013;51.840;8.276;2023-01-24T07:25:28;12.37;;;11.07;;
9948;SDS011;5013;51.840;8.276;2023-01-24T07:27:55;14.73;;;12.17;;
9948;SDS011;5013;51.840;8.276;2023-01-24T07:30:21;12.10;;;10.80;;
9948;SDS011;5013;51.840;8.276;2023-01-24T07:32:47;12.73;;;10.53;;
9948;SDS011;5013;51.840;8.276;2023-01-24T07:35:12;13.27;;;11.10;;
9948;SDS011;5013;51.840;8.276;2023-01-24T07:37:38;12.27;;;10.97;;
9948;SDS011;5013;51.840;8.276;2023-01-24T07:40:04;12.60;;;11.30;;
9948;SDS011;5013;51.840;8.276;2023-01-24T07:42:30;12.13;;;10.33;;
9948;SDS011;5013;51.840;8.276;2023-01-24T07:44:55;12.00;;;10.30;;
9948;SDS011;5013;51.840;8.276;2023-01-24T07:47:22;11.77;;;10.47;;
9948;SDS011;5013;51.840;8.276;2023-01-24T07:49:48;13.57;;;10.70;;
9948;SDS011;5013;51.840;8.276;2023-01-24T07:52:14;12.23;;;10.23;;
9948;SDS011;5013;51.840;8.276;2023-01-24T07:54:39;12.03;;;10.83;;
9948;SDS011;5013;51.840;8.276;2023-01-24T07:57:05;13.03;;;11.63;;
9948;SDS011;5013;51.840;8.276;2023-01-24T07:59:30;11.97;;;10.70;;
9948;SDS011;5013;51.840;8.276;2023-01-24T08:01:56;12.30;;;10.67;;
9948;SDS011;5013;51.840;8.276;2023-01-24T08:04:21;14.37;;;11.33;;
9948;SDS011;5013;51.840;8.276;2023-01-24T08:06:47;12.50;;;10.83;;
9948;SDS011;5013;51.840;8.276;2023-01-24T08:09:31;14.53;;;11.67;;
9948;SDS011;5013;51.840;8.276;2023-01-24T08:11:56;14.03;;;11.90;;
9948;SDS011;5013;51.840;8.276;2023-01-24T08:14:22;12.73;;;11.13;;
9948;SDS011;5013;51.840;8.276;2023-01-24T08:16:48;14.30;;;11.67;;
9948;SDS011;5013;51.840;8.276;2023-01-24T08:19:14;15.43;;;11.93;;
9948;SDS011;5013;51.840;8.276;2023-01-24T08:21:40;12.27;;;10.97;;
9948;SDS011;5013;51.840;8.276;2023-01-24T08:24:05;12.57;;;11.27;;
9948;SDS011;5013;51.840;8.276;2023-01-24T08:26:31;12.00;;;10.67;;
9948;SDS011;5013;51.840;8.276;2023-01-24T08:28:57;12.37;;;10.90;;
9948;SDS011;5013;51.840;8.276;2023-01-24T08:31:23;12.30;;;9.87;;
9948;SDS011;5013;51.840;8.276;2023-01-24T08:33:48;11.60;;;10.40;;
9948;SDS011;5013;51.840;8.276;2023-01-24T08:36:14;12.53;;;10.27;;
9948;SDS011;5013;51.840;8.276;2023-01-24T08:38:39;11.73;;;10.53;;
9948;SDS011;5013;51.840;8.276;2023-01-24T08:41:05;11.90;;;10.70;;
9948;SDS011;5013;51.840;8.276;2023-01-24T08:43:32;11.73;;;10.17;;
9948;SDS011;5013;51.840;8.276;2023-01-24T08:45:57;11.73;;;10.27;;
9948;SDS011;5013;51.840;8.276;2023-01-24T08:48:23;13.57;;;12.17;;
9948;SDS011;5013;51.840;8.276;2023-01-24T08:50:49;13.53;;;10.93;;
9948;SDS011;5013;51.840;8.276;2023-01-24T08:53:14;13.30;;;10.83;;
9948;SDS011;5013;51.840;8.276;2023-01-24T08:55:40;15.30;;;12.37;;
9948;SDS011;5013;51.840;8.276;2023-01-24T08:58:05;16.07;;;11.63;;
9948;SDS011;5013;51.840;8.276;2023-01-24T09:00:31;13.67;;;11.17;;
9948;SDS011;5013;51.840;8.276;2023-01-24T09:02:57;13.43;;;11.43;;
9948;SDS011;5013;51.840;8.276;2023-01-24T09:05:25;13.57;;;11.70;;
9948;SDS011;5013;51.840;8.276;2023-01-24T09:07:51;12.70;;;10.67;;
9948;SDS011;5013;51.840;8.276;2023-01-24T09:10:17;11.80;;;10.60;;
9948;SDS011;5013;51.840;8.276;2023-01-24T09:12:43;10.20;;;9.20;;
9948;SDS011;5013;51.840;8.276;2023-01-24T09:15:08;12.47;;;10.83;;
9948;SDS011;5013;51.840;8.276;2023-01-24T09:17:34;12.30;;;10.47;;
9948;SDS011;5013;51.840;8.276;2023-01-24T09:20:01;12.53;;;10.80;;
9948;SDS011;5013;51.840;8.276;2023-01-24T09:22:27;12.33;;;10.67;;
9948;SDS011;5013;51.840;8.276;2023-01-24T09:24:52;12.83;;;11.33;;
9948;SDS011;5013;51.840;8.276;2023-01-24T09:27:18;14.43;;;11.17;;
9948;SDS011;5013;51.840;8.276;2023-01-24T09:29:43;12.97;;;9.87;;
9948;SDS011;5013;51.840;8.276;2023-01-24T09:32:09;11.17;;;10.07;;
9948;SDS011;5013;51.840;8.276;2023-01-24T09:34:35;11.03;;;9.97;;
9948;SDS011;5013;51.840;8.276;2023-01-24T09:37:00;11.93;;;10.73;;
9948;SDS011;5013;51.840;8.276;2023-01-24T09:39:26;12.07;;;10.63;;
9948;SDS011;5013;51.840;8.276;2023-01-24T09:46:59;15.27;;;10.20;;
9948;SDS011;5013;51.840;8.276;2023-01-24T09:49:35;11.17;;;9.97;;
9948;SDS011;5013;51.840;8.276;2023-01-24T09:52:06;11.30;;;10.10;;
9948;SDS011;5013;51.840;8.276;2023-01-24T09:54:40;11.70;;;10.40;;
9948;SDS011;5013;51.840;8.276;2023-01-24T09:57:24;11.93;;;10.27;;
9948;SDS011;5013;51.840;8.276;2023-01-24T09:59:56;14.57;;;11.23;;
9948;SDS011;5013;51.840;8.276;2023-01-24T10:02:27;13.40;;;11.77;;
9948;SDS011;5013;51.840;8.276;2023-01-24T10:04:53;12.23;;;10.93;;
9948;SDS011;5013;51.840;8.276;2023-01-24T10:13:02;11.33;;;10.03;;
9948;SDS011;5013;51.840;8.276;2023-01-24T10:15:46;11.67;;;10.10;;
9948;SDS011;5013;51.840;8.276;2023-01-24T10:24:08;10.33;;;9.33;;
9948;SDS011;5013;51.840;8.276;2023-01-24T10:26:38;13.47;;;9.70;;
9948;SDS011;5013;51.840;8.276;2023-01-24T10:29:10;10.33;;;9.30;;
9948;SDS011;5013;51.840;8.276;2023-01-24T10:31:41;9.93;;;8.87;;
9948;SDS011;5013;51.840;8.276;2023-01-24T10:34:18;11.37;;;9.70;;
9948;SDS011;5013;51.840;8.276;2023-01-24T10:36:53;8.40;;;7.63;;
9948;SDS011;5013;51.840;8.276;2023-01-24T10:39:23;9.00;;;8.10;;
9948;SDS011;5013;51.840;8.276;2023-01-24T10:41:48;9.07;;;8.17;;
9948;SDS011;5013;51.840;8.276;2023-01-24T10:44:24;9.37;;;8.47;;
9948;SDS011;5013;51.840;8.276;2023-01-24T10:49:40;8.50;;;7.70;;
9948;SDS011;5013;51.840;8.276;2023-01-24T10:52:15;7.67;;;6.97;;
9948;SDS011;5013;51.840;8.276;2023-01-24T10:57:30;9.23;;;8.43;;
9948;SDS011;5013;51.840;8.276;2023-01-24T11:02:51;7.93;;;7.20;;
9948;SDS011;5013;51.840;8.276;2023-01-24T11:05:19;7.40;;;6.80;;
9948;SDS011;5013;51.840;8.276;2023-01-24T11:07:47;7.60;;;6.97;;
9948;SDS011;5013;51.840;8.276;2023-01-24T11:12:55;8.40;;;7.57;;
9948;SDS011;5013;51.840;8.276;2023-01-24T11:15:26;7.93;;;7.20;;
9948;SDS011;5013;51.840;8.276;2023-01-24T11:17:57;8.53;;;7.80;;
9948;SDS011;5013;51.840;8.276;2023-01-24T11:20:30;7.60;;;7.00;;
9948;SDS011;5013;51.840;8.276;2023-01-24T11:23:10;8.80;;;8.00;;
9948;SDS011;5013;51.840;8.276;2023-01-24T11:26:00;9.53;;;8.53;;
9948;SDS011;5013;51.840;8.276;2023-01-24T11:28:28;10.87;;;8.97;;
9948;SDS011;5013;51.840;8.276;2023-01-24T11:30:55;9.67;;;8.60;;
9948;SDS011;5013;51.840;8.276;2023-01-24T11:33:31;9.87;;;8.60;;
9948;SDS011;5013;51.840;8.276;2023-01-24T11:38:52;8.10;;;7.40;;
9948;SDS011;5013;51.840;8.276;2023-01-24T11:41:23;7.97;;;7.27;;
9948;SDS011;5013;51.840;8.276;2023-01-24T11:44:09;8.73;;;7.93;;
9948;SDS011;5013;51.840;8.276;2023-01-24T11:46:56;7.93;;;7.33;;
9948;SDS011;5013;51.840;8.276;2023-01-24T11:52:35;8.40;;;7.70;;
9948;SDS011;5013;51.840;8.276;2023-01-24T12:01:12;7.10;;;6.50;;
9948;SDS011;5013;51.840;8.276;2023-01-24T12:06:43;7.50;;;6.80;;
9948;SDS011;5013;51.840;8.276;2023-01-24T12:09:25;9.17;;;7.63;;
9948;SDS011;5013;51.840;8.276;2023-01-24T12:12:03;7.67;;;7.00;;
9948;SDS011;5013;51.840;8.276;2023-01-24T12:14:42;7.73;;;6.93;;
9948;SDS011;5013;51.840;8.276;2023-01-24T12:20:06;9.30;;;8.27;;
9948;SDS011;5013;51.840;8.276;2023-01-24T12:22:46;8.83;;;8.03;;
9948;SDS011;5013;51.840;8.276;2023-01-24T12:25:22;7.80;;;7.20;;
9948;SDS011;5013;51.840;8.276;2023-01-24T12:27:48;7.40;;;6.80;;
9948;SDS011;5013;51.840;8.276;2023-01-24T12:30:31;7.30;;;6.80;;
9948;SDS011;5013;51.840;8.276;2023-01-24T12:35:49;7.23;;;6.63;;
9948;SDS011;5013;51.840;8.276;2023-01-24T12:41:06;7.63;;;6.93;;
9948;SDS011;5013;51.840;8.276;2023-01-24T12:46:41;8.03;;;7.43;;
9948;SDS011;5013;51.840;8.276;2023-01-24T12:52:22;8.83;;;7.60;;
9948;SDS011;5013;51.840;8.276;2023-01-24T12:54:58;9.03;;;8.23;;
9948;SDS011;5013;51.840;8.276;2023-01-24T13:00:34;9.23;;;8.50;;
9948;SDS011;5013;51.840;8.276;2023-01-24T13:08:59;9.53;;;8.63;;
9948;SDS011;5013;51.840;8.276;2023-01-24T13:11:28;9.03;;;8.23;;
9948;SDS011;5013;51.840;8.276;2023-01-24T13:31:12;10.67;;;9.77;;
9948;SDS011;5013;51.840;8.276;2023-01-24T13:34:04;11.07;;;9.93;;
9948;SDS011;5013;51.840;8.276;2023-01-24T13:36:38;10.77;;;9.77;;
9948;SDS011;5013;51.840;8.276;2023-01-24T13:39:04;10.10;;;9.20;;
9948;SDS011;5013;51.840;8.276;2023-01-24T13:41:35;10.03;;;9.13;;
9948;SDS011;5013;51.840;8.276;2023-01-24T13:55:02;11.43;;;10.37;;
9948;SDS011;5013;51.840;8.276;2023-01-24T14:08:01;10.73;;;9.70;;
9948;SDS011;5013;51.840;8.276;2023-01-24T14:10:49;11.10;;;10.00;;
9948;SDS011;5013;51.840;8.276;2023-01-24T14:19:04;11.83;;;10.73;;
9948;SDS011;5013;51.840;8.276;2023-01-24T14:21:52;11.43;;;10.23;;
9948;SDS011;5013;51.840;8.276;2023-01-24T14:24:24;12.37;;;11.17;;
9948;SDS011;5013;51.840;8.276;2023-01-24T14:29:54;11.50;;;10.40;;
9948;SDS011;5013;51.840;8.276;2023-01-24T14:32:37;10.63;;;9.63;;
9948;SDS011;5013;51.840;8.276;2023-01-24T14:35:36;14.20;;;11.07;;
9948;SDS011;5013;51.840;8.276;2023-01-24T14:38:14;13.97;;;12.57;;
9948;SDS011;5013;51.840;8.276;2023-01-24T14:40:40;13.70;;;11.50;;
9948;SDS011;5013;51.840;8.276;2023-01-24T14:43:08;11.10;;;10.13;;
9948;SDS011;5013;51.840;8.276;2023-01-24T14:45:36;10.87;;;9.97;;
9948;SDS011;5013;51.840;8.276;2023-01-24T14:48:06;10.37;;;9.57;;
9948;SDS011;5013;51.840;8.276;2023-01-24T14:50:34;11.30;;;10.20;;
9948;SDS011;5013;51.840;8.276;2023-01-24T14:55:48;11.60;;;10.60;;
9948;SDS011;5013;51.840;8.276;2023-01-24T14:58:20;12.10;;;11.10;;
9948;SDS011;5013;51.840;8.276;2023-01-24T15:00:49;13.47;;;11.77;;
9948;SDS011;5013;51.840;8.276;2023-01-24T15:03:18;13.13;;;11.80;;
9948;SDS011;5013;51.840;8.276;2023-01-24T15:05:49;14.07;;;12.77;;
9948;SDS011;5013;51.840;8.276;2023-01-24T15:08:18;15.83;;;14.10;;
9948;SDS011;5013;51.840;8.276;2023-01-24T15:10:43;13.47;;;12.27;;
9948;SDS011;5013;51.840;8.276;2023-01-24T15:13:32;12.40;;;11.27;;
9948;SDS011;5013;51.840;8.276;2023-01-24T15:15:57;12.83;;;11.63;;
9948;SDS011;5013;51.840;8.276;2023-01-24T15:18:33;15.77;;;14.17;;
9948;SDS011;5013;51.840;8.276;2023-01-24T15:21:18;13.67;;;12.47;;
9948;SDS011;5013;51.840;8.276;2023-01-24T15:23:48;13.33;;;12.13;;
9948;SDS011;5013;51.840;8.276;2023-01-24T15:28:53;14.30;;;12.93;;
9948;SDS011;5013;51.840;8.276;2023-01-24T15:31:20;12.43;;;11.27;;
9948;SDS011;5013;51.840;8.276;2023-01-24T15:33:52;13.33;;;12.13;;
9948;SDS011;5013;51.840;8.276;2023-01-24T15:36:24;13.60;;;12.40;;
9948;SDS011;5013;51.840;8.276;2023-01-24T15:38:51;13.50;;;12.10;;
9948;SDS011;5013;51.840;8.276;2023-01-24T15:41:19;11.77;;;10.73;;
9948;SDS011;5013;51.840;8.276;2023-01-24T15:43:51;13.90;;;12.60;;
9948;SDS011;5013;51.840;8.276;2023-01-24T15:46:33;12.50;;;11.30;;
9948;SDS011;5013;51.840;8.276;2023-01-24T15:54:53;12.13;;;11.03;;
9948;SDS011;5013;51.840;8.276;2023-01-24T16:02:32;12.80;;;11.33;;
9948;SDS011;5013;51.840;8.276;2023-01-24T16:04:58;12.30;;;11.20;;
9948;SDS011;5013;51.840;8.276;2023-01-24T16:07:25;13.47;;;12.07;;
9948;SDS011;5013;51.840;8.276;2023-01-24T16:09:51;13.23;;;11.93;;
9948;SDS011;5013;51.840;8.276;2023-01-24T16:12:20;14.00;;;12.80;;
9948;SDS011;5013;51.840;8.276;2023-01-24T16:14:53;15.07;;;13.60;;
9948;SDS011;5013;51.840;8.276;2023-01-24T16:17:21;16.50;;;13.67;;
9948;SDS011;5013;51.840;8.276;2023-01-24T16:19:48;15.47;;;13.97;;
9948;SDS011;5013;51.840;8.276;2023-01-24T16:22:13;14.63;;;13.27;;
9948;SDS011;5013;51.840;8.276;2023-01-24T16:24:40;15.50;;;13.90;;
9948;SDS011;5013;51.840;8.276;2023-01-24T16:27:08;13.93;;;12.73;;
9948;SDS011;5013;51.840;8.276;2023-01-24T16:29:37;14.83;;;13.47;;
9948;SDS011;5013;51.840;8.276;2023-01-24T16:32:02;14.73;;;13.30;;
9948;SDS011;5013;51.840;8.276;2023-01-24T16:34:33;14.43;;;13.07;;
9948;SDS011;5013;51.840;8.276;2023-01-24T16:36:59;17.00;;;15.23;;
9948;SDS011;5013;51.840;8.276;2023-01-24T16:39:24;13.87;;;12.57;;
9948;SDS011;5013;51.840;8.276;2023-01-24T16:41:50;14.13;;;12.73;;
9948;SDS011;5013;51.840;8.276;2023-01-24T16:44:16;15.73;;;14.10;;
9948;SDS011;5013;51.840;8.276;2023-01-24T16:46:46;15.17;;;13.77;;
9948;SDS011;5013;51.840;8.276;2023-01-24T16:49:13;14.13;;;12.73;;
9948;SDS011;5013;51.840;8.276;2023-01-24T16:51:39;16.93;;;14.87;;
9948;SDS011;5013;51.840;8.276;2023-01-24T16:54:06;26.57;;;19.57;;
9948;SDS011;5013;51.840;8.276;2023-01-24T16:56:31;17.97;;;16.00;;
9948;SDS011;5013;51.840;8.276;2023-01-24T16:58:57;19.80;;;15.67;;
9948;SDS011;5013;51.840;8.276;2023-01-24T17:01:23;19.40;;;15.97;;
9948;SDS011;5013;51.840;8.276;2023-01-24T17:03:50;15.57;;;13.87;;
9948;SDS011;5013;51.840;8.276;2023-01-24T17:06:17;14.47;;;12.97;;
9948;SDS011;5013;51.840;8.276;2023-01-24T17:08:43;21.40;;;15.70;;
9948;SDS011;5013;51.840;8.276;2023-01-24T17:11:09;22.47;;;17.27;;
9948;SDS011;5013;51.840;8.276;2023-01-24T17:13:36;23.27;;;16.77;;
9948;SDS011;5013;51.840;8.276;2023-01-24T17:16:05;21.67;;;16.43;;
9948;SDS011;5013;51.840;8.276;2023-01-24T17:18:33;24.77;;;17.87;;
9948;SDS011;5013;51.840;8.276;2023-01-24T17:21:00;20.07;;;15.47;;
9948;SDS011;5013;51.840;8.276;2023-01-24T17:23:30;21.57;;;17.33;;
9948;SDS011;5013;51.840;8.276;2023-01-24T17:26:05;17.33;;;15.53;;
9948;SDS011;5013;51.840;8.276;2023-01-24T17:28:32;15.23;;;13.73;;
9948;SDS011;5013;51.840;8.276;2023-01-24T17:30:58;19.00;;;16.70;;
9948;SDS011;5013;51.840;8.276;2023-01-24T17:33:24;15.97;;;14.47;;
9948;SDS011;5013;51.840;8.276;2023-01-24T17:35:49;16.13;;;14.53;;